createdAt,value
2018-09-04T00:00:04.318Z,99.90
2018-09-04T00:02:08.987Z,99.90
2018-09-04T00:04:13.677Z,99.90
2018-09-04T00:06:18.365Z,99.90
2018-09-04T00:08:23.044Z,99.90
2018-09-04T00:10:27.974Z,99.90
2018-09-04T00:12:32.666Z,99.90
2018-09-04T00:14:37.421Z,99.90
2018-09-04T00:16:42.195Z,99.90
2018-09-04T00:18:46.906Z,99.90
2018-09-04T00:20:51.839Z,99.90
2018-09-04T00:22:56.457Z,99.90
2018-09-04T00:25:02.369Z,99.90
2018-09-04T00:27:07.060Z,99.90
2018-09-04T00:29:11.767Z,99.90
2018-09-04T00:31:22.520Z,99.90
2018-09-04T00:33:27.172Z,99.90
2018-09-04T00:35:31.835Z,99.90
2018-09-04T00:37:36.479Z,99.90
2018-09-04T00:39:41.166Z,99.90
2018-09-04T00:41:45.860Z,99.90
2018-09-04T00:43:50.492Z,99.90
2018-09-04T00:45:55.177Z,99.90
2018-09-04T00:47:59.876Z,99.90
2018-09-04T00:50:04.665Z,99.90
2018-09-04T00:52:09.406Z,99.90
2018-09-04T00:54:14.067Z,99.90
2018-09-04T00:56:18.783Z,99.90
2018-09-04T00:58:23.454Z,99.90
2018-09-04T01:00:28.642Z,99.90
2018-09-04T01:02:33.309Z,99.90
2018-09-04T01:04:38.101Z,99.90
2018-09-04T01:06:42.777Z,99.90
2018-09-04T01:08:48.126Z,99.90
2018-09-04T01:10:52.889Z,99.90
2018-09-04T01:12:57.653Z,99.90
2018-09-04T01:15:02.508Z,99.90
2018-09-04T01:17:07.649Z,99.90
2018-09-04T01:19:12.454Z,99.90
2018-09-04T01:21:17.167Z,99.90
2018-09-04T01:23:21.846Z,99.90
2018-09-04T01:25:26.586Z,99.90
2018-09-04T01:27:31.301Z,99.90
2018-09-04T01:29:35.932Z,99.90
2018-09-04T01:31:40.685Z,99.90
2018-09-04T01:33:45.330Z,99.90
2018-09-04T01:35:50.025Z,99.90
2018-09-04T01:37:54.698Z,99.90
2018-09-04T01:39:59.406Z,99.90
2018-09-04T01:42:04.103Z,99.90
2018-09-04T01:44:08.850Z,99.90
2018-09-04T01:46:13.722Z,99.90
2018-09-04T01:48:18.484Z,99.90
2018-09-04T01:50:23.325Z,99.90
2018-09-04T01:52:28.031Z,99.90
2018-09-04T01:54:32.815Z,99.90
2018-09-04T01:56:37.446Z,99.90
2018-09-04T01:58:42.217Z,99.90
2018-09-04T02:00:46.925Z,99.90
2018-09-04T02:02:51.759Z,99.90
2018-09-04T02:04:56.423Z,99.90
2018-09-04T02:07:01.124Z,99.90
2018-09-04T02:09:07.038Z,99.90
2018-09-04T02:11:11.881Z,99.90
2018-09-04T02:13:16.706Z,99.90
2018-09-04T02:15:21.471Z,99.90
2018-09-04T02:17:26.288Z,99.90
2018-09-04T02:19:31.002Z,99.90
2018-09-04T02:21:35.724Z,99.90
2018-09-04T02:23:40.493Z,99.90
2018-09-04T02:25:45.195Z,99.90
2018-09-04T02:27:49.848Z,99.90
2018-09-04T02:29:54.545Z,99.90
2018-09-04T02:31:59.205Z,99.90
2018-09-04T02:34:03.917Z,99.90
2018-09-04T02:36:08.581Z,99.90
2018-09-04T02:38:13.342Z,99.90
2018-09-04T02:40:18.035Z,99.90
2018-09-04T02:42:22.701Z,99.90
2018-09-04T02:44:27.542Z,99.90
2018-09-04T02:46:32.407Z,99.90
2018-09-04T02:48:37.116Z,99.90
2018-09-04T02:50:41.835Z,99.90
2018-09-04T02:52:46.617Z,99.90
2018-09-04T02:54:51.336Z,99.90
2018-09-04T02:56:56.023Z,99.90
2018-09-04T02:59:00.777Z,99.90
2018-09-04T03:01:05.612Z,99.90
2018-09-04T03:03:10.242Z,99.90
2018-09-04T03:05:17.499Z,99.90
2018-09-04T03:07:22.147Z,99.90
2018-09-04T03:09:26.822Z,99.90
2018-09-04T03:11:31.506Z,99.90
2018-09-04T03:13:36.257Z,99.90
2018-09-04T03:15:40.854Z,99.90
2018-09-04T03:17:45.578Z,99.90
2018-09-04T03:19:50.282Z,99.90
2018-09-04T03:21:54.940Z,99.90
2018-09-04T03:23:59.637Z,99.90
2018-09-04T03:26:04.376Z,99.90
2018-09-04T03:28:09.033Z,99.90
2018-09-04T03:30:13.762Z,99.90
2018-09-04T03:32:19.264Z,99.90
2018-09-04T03:34:23.919Z,99.90
2018-09-04T03:36:28.675Z,99.90
2018-09-04T03:38:33.326Z,99.90
2018-09-04T03:40:38.006Z,99.90
2018-09-04T03:42:42.976Z,99.90
2018-09-04T03:44:47.669Z,99.90
2018-09-04T03:46:52.364Z,99.90
2018-09-04T03:48:57.424Z,99.90
2018-09-04T03:51:02.168Z,99.90
2018-09-04T03:53:07.011Z,99.90
2018-09-04T03:55:11.769Z,99.90
2018-09-04T03:57:16.442Z,99.90
2018-09-04T03:59:21.437Z,99.90
2018-09-04T04:01:26.166Z,99.90
2018-09-04T04:03:30.832Z,99.90
2018-09-04T04:05:35.623Z,99.90
2018-09-04T04:07:40.555Z,99.90
2018-09-04T04:09:45.773Z,99.90
2018-09-04T04:11:50.556Z,99.90
2018-09-04T04:13:56.065Z,99.90
2018-09-04T04:16:00.801Z,99.90
2018-09-04T04:18:06.878Z,99.90
2018-09-04T04:20:12.405Z,99.90
2018-09-04T04:22:17.110Z,99.90
2018-09-04T04:24:21.827Z,99.90
2018-09-04T04:26:26.511Z,99.90
2018-09-04T04:28:31.171Z,99.90
2018-09-04T04:30:35.783Z,99.90
2018-09-04T04:32:41.459Z,99.90
2018-09-04T04:34:46.158Z,99.90
2018-09-04T04:36:50.822Z,99.90
2018-09-04T04:38:55.602Z,99.90
2018-09-04T04:41:00.516Z,99.90
2018-09-04T04:43:05.459Z,99.90
2018-09-04T04:45:10.337Z,99.90
2018-09-04T04:47:15.192Z,99.90
2018-09-04T04:49:20.166Z,99.90
2018-09-04T04:51:25.842Z,99.90
2018-09-04T04:53:30.531Z,99.90
2018-09-04T04:55:35.413Z,99.90
2018-09-04T04:57:40.333Z,99.90
2018-09-04T04:59:45.130Z,99.90
2018-09-04T05:01:50.325Z,99.90
2018-09-04T05:03:55.494Z,99.90
2018-09-04T05:06:00.557Z,99.90
2018-09-04T05:08:06.111Z,99.90
2018-09-04T05:10:10.970Z,99.90
2018-09-04T05:12:15.687Z,99.90
2018-09-04T05:14:20.603Z,99.90
2018-09-04T05:16:25.653Z,99.90
2018-09-04T05:18:31.926Z,99.90
2018-09-04T05:20:36.797Z,99.90
2018-09-04T05:22:41.729Z,99.90
2018-09-04T05:24:47.832Z,99.90
2018-09-04T05:26:52.625Z,99.90
2018-09-04T05:28:57.940Z,99.90
2018-09-04T05:31:02.754Z,99.90
2018-09-04T05:33:12.631Z,99.90
2018-09-04T05:35:17.564Z,99.90
2018-09-04T05:37:22.273Z,99.90
2018-09-04T05:39:26.990Z,99.90
2018-09-04T05:41:31.828Z,99.90
2018-09-04T05:43:48.665Z,99.90
2018-09-04T05:45:53.560Z,99.90
2018-09-04T05:48:00.344Z,99.90
2018-09-04T05:50:07.040Z,99.90
2018-09-04T05:52:11.775Z,99.90
2018-09-04T05:54:16.619Z,99.90
2018-09-04T05:56:21.692Z,99.90
2018-09-04T05:58:26.617Z,99.90
2018-09-04T06:00:37.306Z,99.90
2018-09-04T06:02:42.295Z,99.90
2018-09-04T06:04:47.107Z,99.90
2018-09-04T06:06:52.078Z,99.90
2018-09-04T06:08:57.442Z,99.90
2018-09-04T06:11:02.313Z,99.90
2018-09-04T06:13:07.418Z,99.90
2018-09-04T06:15:12.334Z,99.90
2018-09-04T06:17:17.504Z,99.90
2018-09-04T06:19:23.553Z,99.90
2018-09-04T06:21:28.474Z,99.90
2018-09-04T06:23:33.955Z,99.90
2018-09-04T06:25:38.893Z,99.90
2018-09-04T06:27:43.824Z,99.90
2018-09-04T06:29:48.637Z,99.90
2018-09-04T06:31:53.523Z,99.90
2018-09-04T06:33:58.684Z,99.90
2018-09-04T06:36:03.483Z,99.90
2018-09-04T06:38:08.848Z,99.90
2018-09-04T06:40:13.694Z,99.90
2018-09-04T06:42:18.515Z,99.90
2018-09-04T06:44:23.408Z,99.90
2018-09-04T06:46:28.235Z,99.90
2018-09-04T06:48:33.087Z,99.90
2018-09-04T06:50:37.961Z,99.90
2018-09-04T06:52:42.768Z,99.90
2018-09-04T06:54:47.959Z,99.90
2018-09-04T06:56:52.757Z,99.90
2018-09-04T06:58:57.550Z,99.90
2018-09-04T07:01:02.363Z,99.90
2018-09-04T07:03:07.317Z,99.90
2018-09-04T07:05:12.783Z,99.90
2018-09-04T07:07:17.512Z,99.90
2018-09-04T07:09:22.367Z,99.90
2018-09-04T07:11:27.131Z,99.90
2018-09-04T07:13:31.880Z,99.90
2018-09-04T07:15:36.594Z,99.90
2018-09-04T07:17:41.370Z,99.90
2018-09-04T07:19:46.272Z,99.90
2018-09-04T07:21:50.994Z,99.90
2018-09-04T07:23:55.717Z,99.90
2018-09-04T07:26:00.422Z,99.90
2018-09-04T07:28:05.288Z,99.90
2018-09-04T07:30:10.107Z,99.90
2018-09-04T07:32:14.844Z,99.90
2018-09-04T07:34:19.587Z,99.90
2018-09-04T07:36:24.421Z,99.90
2018-09-04T07:38:29.312Z,99.90
2018-09-04T07:40:34.196Z,99.90
2018-09-04T07:42:39.687Z,99.90
2018-09-04T07:44:44.446Z,99.90
2018-09-04T07:46:49.242Z,99.90
2018-09-04T07:48:54.064Z,99.90
2018-09-04T07:50:58.812Z,99.90
2018-09-04T07:53:03.577Z,99.90
2018-09-04T07:55:08.649Z,99.90
2018-09-04T07:57:13.510Z,99.90
2018-09-04T07:59:18.273Z,99.90
2018-09-04T08:01:23.045Z,99.90
2018-09-04T08:03:28.368Z,99.90
2018-09-04T08:05:33.267Z,99.90
2018-09-04T08:07:38.014Z,99.90
2018-09-04T08:09:42.818Z,99.90
2018-09-04T08:11:47.589Z,99.90
2018-09-04T08:13:52.553Z,99.90
2018-09-04T08:15:57.275Z,99.90
2018-09-04T08:18:02.251Z,99.90
2018-09-04T08:20:07.168Z,99.90
2018-09-04T08:22:11.900Z,99.90
2018-09-04T08:24:16.624Z,99.90
2018-09-04T08:26:21.370Z,99.90
2018-09-04T08:28:26.356Z,99.90
2018-09-04T08:30:31.066Z,99.90
2018-09-04T08:32:35.964Z,99.90
2018-09-04T08:34:40.773Z,99.90
2018-09-04T08:36:45.597Z,99.90
2018-09-04T08:38:51.636Z,99.90
2018-09-04T08:40:56.422Z,99.90
2018-09-04T08:43:01.591Z,99.90
2018-09-04T08:45:06.421Z,99.90
2018-09-04T08:47:11.234Z,99.90
2018-09-04T08:49:16.039Z,99.90
2018-09-04T08:51:20.775Z,99.90
2018-09-04T08:53:25.630Z,99.90
2018-09-04T08:55:30.376Z,99.90
2018-09-04T08:57:35.238Z,99.90
2018-09-04T08:59:40.322Z,99.90
2018-09-04T09:01:45.596Z,99.90
2018-09-04T09:03:50.570Z,99.90
2018-09-04T09:05:55.341Z,99.90
2018-09-04T09:10:47.017Z,99.90
2018-09-04T09:12:53.695Z,99.90
2018-09-04T09:14:59.523Z,99.90
2018-09-04T09:19:21.321Z,99.90
2018-09-04T09:21:26.188Z,99.90
2018-09-04T09:23:30.913Z,99.90
2018-09-04T09:25:36.401Z,99.90
2018-09-04T09:27:41.866Z,99.90
2018-09-04T09:29:46.582Z,99.90
2018-09-04T09:31:51.462Z,99.90
2018-09-04T09:33:56.295Z,99.90
2018-09-04T09:36:01.718Z,99.90
2018-09-04T09:38:06.523Z,99.90
2018-09-04T09:40:11.830Z,99.90
2018-09-04T09:42:16.909Z,99.90
2018-09-04T09:44:21.991Z,99.90
2018-09-04T09:46:26.888Z,99.90
2018-09-04T09:48:36.864Z,99.90
2018-09-04T09:50:42.734Z,99.90
2018-09-04T09:52:47.817Z,99.90
2018-09-04T09:54:53.070Z,99.90
2018-09-04T09:56:57.942Z,99.90
2018-09-04T09:59:03.774Z,99.90
2018-09-04T10:01:14.071Z,99.90
2018-09-04T10:03:23.877Z,99.90
2018-09-04T10:05:28.923Z,99.90
2018-09-04T10:07:33.968Z,99.90
2018-09-04T10:09:38.802Z,99.90
2018-09-04T10:11:43.990Z,99.90
2018-09-04T10:13:49.443Z,99.90
2018-09-04T10:15:54.233Z,99.90
2018-09-04T10:18:00.046Z,99.90
2018-09-04T10:20:05.065Z,99.90
2018-09-04T10:22:10.141Z,99.90
2018-09-04T10:24:15.284Z,99.90
2018-09-04T10:26:20.499Z,99.90
2018-09-04T10:28:25.637Z,99.90
2018-09-04T10:30:30.819Z,99.90
2018-09-04T10:32:36.107Z,99.90
2018-09-04T10:34:41.223Z,99.90
2018-09-04T10:36:47.058Z,99.90
2018-09-04T10:38:55.872Z,99.90
2018-09-04T10:41:02.658Z,99.90
2018-09-04T10:43:07.725Z,99.90
2018-09-04T10:45:17.485Z,99.90
2018-09-04T10:47:22.998Z,99.90
2018-09-04T10:49:27.746Z,99.90
2018-09-04T10:51:32.802Z,99.90
2018-09-04T10:53:38.576Z,99.90
2018-09-04T10:55:43.479Z,99.90
2018-09-04T10:57:49.026Z,99.90
2018-09-04T10:59:54.025Z,99.90
2018-09-04T11:01:59.124Z,99.90
2018-09-04T11:04:04.434Z,99.90
2018-09-04T11:06:09.346Z,99.90
2018-09-04T11:08:14.471Z,99.90
2018-09-04T11:10:19.620Z,99.90
2018-09-04T11:12:24.692Z,99.80
2018-09-04T11:14:29.804Z,99.60
2018-09-04T11:16:35.033Z,99.20
2018-09-04T11:18:40.167Z,99.40
2018-09-04T11:20:45.253Z,99.10
2018-09-04T11:22:50.316Z,99.20
2018-09-04T11:24:55.544Z,99.30
2018-09-04T11:27:00.612Z,99.70
2018-09-04T11:29:09.184Z,99.50
2018-09-04T11:31:14.289Z,99.70
2018-09-04T11:33:19.203Z,99.90
2018-09-04T11:35:24.222Z,99.90
2018-09-04T11:37:29.066Z,99.90
2018-09-04T11:39:33.884Z,99.90
2018-09-04T11:41:39.282Z,99.90
2018-09-04T11:43:44.014Z,99.90
2018-09-04T11:45:48.829Z,99.90
2018-09-04T11:47:53.768Z,99.90
2018-09-04T11:49:58.537Z,99.90
2018-09-04T11:52:03.285Z,99.90
2018-09-04T11:54:09.086Z,99.90
2018-09-04T11:56:17.839Z,99.90
2018-09-04T11:58:22.532Z,99.90
2018-09-04T12:00:36.527Z,99.70
2018-09-04T12:02:41.412Z,99.50
2018-09-04T12:04:46.297Z,99.20
2018-09-04T12:06:51.136Z,98.90
2018-09-04T12:08:55.940Z,98.70
2018-09-04T12:11:00.752Z,98.50
2018-09-04T12:13:05.913Z,97.90
2018-09-04T12:15:10.742Z,97.60
2018-09-04T12:17:16.250Z,97.50
2018-09-04T12:19:21.486Z,97.60
2018-09-04T12:21:26.628Z,97.10
2018-09-04T12:23:31.885Z,96.60
2018-09-04T12:25:37.530Z,96.80
2018-09-04T12:27:42.693Z,97.00
2018-09-04T12:29:47.746Z,96.50
2018-09-04T12:31:54.267Z,96.40
2018-09-04T12:33:59.676Z,96.50
2018-09-04T12:36:05.045Z,96.70
2018-09-04T12:38:12.373Z,96.40
2018-09-04T12:40:17.518Z,96.50
2018-09-04T12:42:23.645Z,96.50
2018-09-04T12:44:28.541Z,95.70
2018-09-04T12:46:33.862Z,95.70
2018-09-04T12:48:39.479Z,95.40
2018-09-04T12:50:44.910Z,95.40
2018-09-04T12:52:50.811Z,95.60
2018-09-04T12:54:55.786Z,95.60
2018-09-04T12:57:00.974Z,95.70
2018-09-04T12:59:07.228Z,95.80
2018-09-04T13:01:12.826Z,95.90
2018-09-04T13:03:25.633Z,95.10
2018-09-04T13:05:30.729Z,94.70
2018-09-04T13:07:35.820Z,95.00
2018-09-04T13:09:40.784Z,95.50
2018-09-04T13:11:45.858Z,95.30
2018-09-04T13:13:50.915Z,95.00
2018-09-04T13:15:57.865Z,93.60
2018-09-04T13:18:02.874Z,93.60
2018-09-04T13:20:08.111Z,93.40
2018-09-04T13:22:13.072Z,93.30
2018-09-04T13:24:18.144Z,93.00
2018-09-04T13:26:23.121Z,92.40
2018-09-04T13:28:28.623Z,92.20
2018-09-04T13:30:33.663Z,91.80
2018-09-04T13:32:38.914Z,92.00
2018-09-04T13:34:43.825Z,92.10
2018-09-04T13:36:48.987Z,91.90
2018-09-04T13:38:54.828Z,92.00
2018-09-04T13:41:05.393Z,92.10
2018-09-04T13:43:10.601Z,92.30
2018-09-04T13:45:16.512Z,92.40
2018-09-04T13:47:24.163Z,91.80
2018-09-04T13:49:29.538Z,92.20
2018-09-04T13:51:34.714Z,92.10
2018-09-04T13:53:39.873Z,92.30
2018-09-04T13:55:45.064Z,92.40
2018-09-04T13:57:50.718Z,92.40
2018-09-04T13:59:56.131Z,92.60
2018-09-04T14:02:01.352Z,92.50
2018-09-04T14:04:06.237Z,92.80
2018-09-04T14:06:11.176Z,92.90
2018-09-04T14:08:16.201Z,92.80
2018-09-04T14:10:21.304Z,92.70
2018-09-04T14:12:27.008Z,92.60
2018-09-04T14:14:32.029Z,92.40
2018-09-04T14:16:43.149Z,92.90
2018-09-04T14:18:42.705Z,93.00
2018-09-04T14:20:47.731Z,92.80
2018-09-04T14:22:52.737Z,92.60
2018-09-04T14:24:57.933Z,92.60
2018-09-04T14:27:02.987Z,93.00
2018-09-04T14:29:08.471Z,93.00
2018-09-04T14:31:13.668Z,92.80
2018-09-04T14:33:18.842Z,92.80
2018-09-04T14:35:23.725Z,92.60
2018-09-04T14:37:28.869Z,93.10
2018-09-04T14:39:33.753Z,92.90
2018-09-04T14:41:38.746Z,93.00
2018-09-04T14:43:43.635Z,92.60
2018-09-04T14:45:49.710Z,92.20
2018-09-04T14:47:55.475Z,92.10
2018-09-04T14:50:00.558Z,92.40
2018-09-04T14:52:05.863Z,92.20
2018-09-04T14:54:11.934Z,92.20
2018-09-04T14:56:17.575Z,92.00
2018-09-04T14:58:22.610Z,91.70
2018-09-04T15:00:27.821Z,91.30
2018-09-04T15:02:32.911Z,90.80
2018-09-04T15:04:38.294Z,91.10
2018-09-04T15:06:43.347Z,91.00
2018-09-04T15:08:48.429Z,90.90
2018-09-04T15:10:53.692Z,90.90
2018-09-04T15:12:58.605Z,91.30
2018-09-04T15:15:03.976Z,91.60
2018-09-04T15:17:08.885Z,92.40
2018-09-04T15:19:13.858Z,94.00
2018-09-04T15:21:18.734Z,97.00
2018-09-04T15:23:23.763Z,99.90
2018-09-04T15:25:28.765Z,99.90
2018-09-04T15:27:34.577Z,99.90
2018-09-04T15:29:39.450Z,99.90
2018-09-04T15:31:44.802Z,99.90
2018-09-04T15:33:49.845Z,99.90
2018-09-04T15:35:55.192Z,99.90
2018-09-04T15:38:00.143Z,99.90
2018-09-04T15:40:05.254Z,99.90
2018-09-04T15:42:10.367Z,99.90
2018-09-04T15:44:16.378Z,99.90
2018-09-04T15:46:22.906Z,99.90
2018-09-04T15:48:27.894Z,99.90
2018-09-04T15:50:32.734Z,99.90
2018-09-04T15:52:39.022Z,99.90
2018-09-04T15:54:43.910Z,99.90
2018-09-04T15:56:48.854Z,99.90
2018-09-04T15:58:53.703Z,99.90
2018-09-04T16:00:58.900Z,99.90
2018-09-04T16:03:04.663Z,99.90
2018-09-04T16:05:09.715Z,99.90
2018-09-04T16:07:14.720Z,99.90
2018-09-04T16:09:20.107Z,99.90
2018-09-04T16:11:25.265Z,99.90
2018-09-04T16:13:30.848Z,99.90
2018-09-04T16:15:35.804Z,99.90
2018-09-04T16:17:41.256Z,99.90
2018-09-04T16:19:47.816Z,99.90
2018-09-04T16:21:53.092Z,99.90
2018-09-04T16:23:58.823Z,99.90
2018-09-04T16:26:03.953Z,99.90
2018-09-04T16:28:09.225Z,99.90
2018-09-04T16:30:14.586Z,99.90
2018-09-04T16:32:20.088Z,99.90
2018-09-04T16:34:25.353Z,99.90
2018-09-04T16:36:30.771Z,99.90
2018-09-04T16:38:36.234Z,99.90
2018-09-04T16:40:41.382Z,99.90
2018-09-04T16:42:46.468Z,99.90
2018-09-04T16:44:52.179Z,99.90
2018-09-04T16:46:57.956Z,99.90
2018-09-04T16:49:03.322Z,99.90
2018-09-04T16:51:10.256Z,99.90
2018-09-04T16:53:15.308Z,99.90
2018-09-04T16:55:20.546Z,99.90
2018-09-04T16:57:26.183Z,99.90
2018-09-04T16:59:32.093Z,99.90
2018-09-04T17:01:37.543Z,99.90
2018-09-04T17:03:43.174Z,99.90
2018-09-04T17:05:48.283Z,99.90
2018-09-04T17:07:53.850Z,99.90
2018-09-04T17:09:59.096Z,99.90
2018-09-04T17:12:04.517Z,99.90
2018-09-04T17:14:10.405Z,99.90
2018-09-04T17:16:15.868Z,99.90
2018-09-04T17:18:22.120Z,99.90
2018-09-04T17:20:27.281Z,99.90
2018-09-04T17:22:33.944Z,99.90
2018-09-04T17:24:38.972Z,99.90
2018-09-04T17:26:47.785Z,99.90
2018-09-04T17:28:52.819Z,99.90
2018-09-04T17:30:57.757Z,99.90
2018-09-04T17:33:04.140Z,99.90
2018-09-04T17:35:09.056Z,99.90
2018-09-04T17:37:14.285Z,99.90
2018-09-04T17:39:19.418Z,99.90
2018-09-04T17:41:24.639Z,99.90
2018-09-04T17:43:30.968Z,99.90
2018-09-04T17:45:36.377Z,99.90
2018-09-04T17:47:41.837Z,99.90
2018-09-04T17:49:47.061Z,99.90
2018-09-04T17:51:52.553Z,99.90
2018-09-04T17:53:57.647Z,99.90
2018-09-04T17:56:03.291Z,99.90
2018-09-04T17:58:08.312Z,99.90
2018-09-04T18:00:14.368Z,99.90
2018-09-04T18:02:20.356Z,99.90
2018-09-04T18:04:25.470Z,99.90
2018-09-04T18:06:30.827Z,99.90
2018-09-04T18:08:35.949Z,99.90
2018-09-04T18:10:41.272Z,99.90
2018-09-04T18:12:47.421Z,99.90
2018-09-04T18:14:52.586Z,99.90
2018-09-04T18:16:58.017Z,99.90
2018-09-04T18:19:03.489Z,99.90
2018-09-04T18:21:08.714Z,99.90
2018-09-04T18:23:15.160Z,99.90
2018-09-04T18:25:20.676Z,99.90
2018-09-04T18:27:26.313Z,99.90
2018-09-04T18:29:34.896Z,99.90
2018-09-04T18:31:41.637Z,99.90
2018-09-04T18:33:47.718Z,99.90
2018-09-04T18:35:52.789Z,99.90
2018-09-04T18:37:57.854Z,99.90
2018-09-04T18:40:04.195Z,99.90
2018-09-04T18:44:56.233Z,99.90
2018-09-04T18:47:01.483Z,99.90
2018-09-04T18:49:07.780Z,99.90
2018-09-04T18:51:20.402Z,99.90
2018-09-04T18:53:31.814Z,99.90
2018-09-04T18:55:37.399Z,99.90
2018-09-04T18:57:43.516Z,99.90
2018-09-04T18:59:50.398Z,99.90
2018-09-04T19:01:57.362Z,99.90
2018-09-04T19:04:06.545Z,99.90
2018-09-04T19:06:18.103Z,99.90
2018-09-04T19:08:28.140Z,99.90
2018-09-04T19:10:40.622Z,99.90
2018-09-04T19:12:51.437Z,99.90
2018-09-04T19:14:58.802Z,99.90
2018-09-04T19:17:10.476Z,99.90
2018-09-04T19:19:22.140Z,99.90
2018-09-04T19:21:34.282Z,99.90
2018-09-04T19:23:45.919Z,99.90
2018-09-04T19:25:57.205Z,99.90
2018-09-04T19:28:09.619Z,99.90
2018-09-04T19:30:19.668Z,99.90
2018-09-04T19:32:31.141Z,99.90
2018-09-04T19:34:40.993Z,99.90
2018-09-04T19:36:49.715Z,99.90
2018-09-04T19:38:59.515Z,99.90
2018-09-04T19:41:09.454Z,99.90
2018-09-04T19:43:21.017Z,99.90
2018-09-04T19:45:31.529Z,99.90
2018-09-04T19:47:44.218Z,99.90
2018-09-04T19:49:55.323Z,99.90
2018-09-04T19:52:05.268Z,99.90
2018-09-04T19:54:15.004Z,99.90
2018-09-04T19:56:23.917Z,99.90
2018-09-04T19:58:31.954Z,99.90
2018-09-04T20:00:41.284Z,99.90
2018-09-04T20:02:49.888Z,99.90
2018-09-04T20:04:59.434Z,99.90
2018-09-04T20:07:14.639Z,99.90
2018-09-04T20:09:23.750Z,99.90
2018-09-04T20:11:29.803Z,99.90
2018-09-04T20:13:42.457Z,99.90
2018-09-04T20:15:48.406Z,99.90
2018-09-04T20:17:56.456Z,99.90
2018-09-04T20:20:03.673Z,99.90
2018-09-04T20:22:13.010Z,99.90
2018-09-04T20:24:21.645Z,99.90
2018-09-04T20:26:27.370Z,99.90
2018-09-04T20:28:34.068Z,99.90
2018-09-04T20:30:41.969Z,99.90
2018-09-04T20:32:49.957Z,99.90
2018-09-04T20:41:18.085Z,99.90
2018-09-04T20:43:23.850Z,99.90
2018-09-04T20:45:29.805Z,99.90
2018-09-04T20:47:37.281Z,99.90
2018-09-04T20:49:43.471Z,99.90
2018-09-04T20:51:50.148Z,99.90
2018-09-04T20:53:56.074Z,99.90
2018-09-04T20:56:02.350Z,99.90
2018-09-04T20:58:23.994Z,99.90
2018-09-04T21:00:45.931Z,99.90
2018-09-04T21:03:07.998Z,99.90
2018-09-04T21:05:29.729Z,99.90
2018-09-04T21:08:56.893Z,99.90
2018-09-04T21:11:02.717Z,99.90
2018-09-04T21:13:08.639Z,99.90
2018-09-04T21:15:14.776Z,99.90
2018-09-04T21:17:21.174Z,99.90
2018-09-04T21:19:27.118Z,99.90
2018-09-04T21:21:32.959Z,99.90
2018-09-04T21:23:38.287Z,99.90
2018-09-04T21:25:43.577Z,99.90
2018-09-04T21:27:49.244Z,99.90
2018-09-04T21:29:54.694Z,99.90
2018-09-04T21:32:01.945Z,99.90
2018-09-04T21:34:09.049Z,99.90
2018-09-04T21:36:14.699Z,99.90
2018-09-04T21:38:20.340Z,99.90
2018-09-04T21:40:25.489Z,99.90
2018-09-04T21:42:33.228Z,99.90
2018-09-04T21:44:39.147Z,99.90
2018-09-04T21:46:44.717Z,99.90
2018-09-04T21:48:49.958Z,99.90
2018-09-04T21:50:56.896Z,99.90
2018-09-04T21:53:02.223Z,99.90
2018-09-04T21:55:08.823Z,99.90
2018-09-04T21:57:14.095Z,99.90
2018-09-04T21:59:20.301Z,99.90
2018-09-04T22:01:26.115Z,99.90
2018-09-04T22:03:32.028Z,99.90
2018-09-04T22:05:37.632Z,99.90
2018-09-04T22:07:42.652Z,99.90
2018-09-04T22:09:47.889Z,99.90
2018-09-04T22:11:52.918Z,99.90
2018-09-04T22:13:58.064Z,99.90
2018-09-04T22:16:04.290Z,99.90
2018-09-04T22:18:09.640Z,99.90
2018-09-04T22:20:19.948Z,99.90
2018-09-04T22:22:25.012Z,99.90
2018-09-04T22:24:36.499Z,99.90
2018-09-04T22:26:41.647Z,99.90
2018-09-04T22:28:46.680Z,99.90
2018-09-04T22:30:51.877Z,99.90
2018-09-04T22:32:57.562Z,99.90
2018-09-04T22:35:02.667Z,99.90
2018-09-04T22:37:07.876Z,99.90
2018-09-04T22:39:12.903Z,99.90
2018-09-04T22:41:18.152Z,99.90
2018-09-04T22:43:23.305Z,99.90
2018-09-04T22:45:28.371Z,99.90
2018-09-04T22:47:33.774Z,99.90
2018-09-04T22:49:43.365Z,99.90
2018-09-04T22:51:48.356Z,99.90
2018-09-04T22:53:53.332Z,99.90
2018-09-04T22:55:58.277Z,99.90
2018-09-04T22:58:08.645Z,99.90
2018-09-04T23:00:14.821Z,99.90
2018-09-04T23:02:19.823Z,99.90
2018-09-04T23:04:24.627Z,99.90
2018-09-04T23:06:29.629Z,99.90
2018-09-04T23:08:34.514Z,99.90
2018-09-04T23:10:39.383Z,99.90
2018-09-04T23:12:50.522Z,99.90
2018-09-04T23:14:55.879Z,99.90
2018-09-04T23:17:00.855Z,99.90
2018-09-04T23:19:05.887Z,99.90
2018-09-04T23:21:11.091Z,99.90
2018-09-04T23:23:16.151Z,99.90
2018-09-04T23:25:21.186Z,99.90
2018-09-04T23:27:26.267Z,99.90
2018-09-04T23:29:31.313Z,99.90
2018-09-04T23:31:36.475Z,99.90
2018-09-04T23:33:41.469Z,99.90
2018-09-04T23:35:46.323Z,99.90
2018-09-04T23:37:51.304Z,99.90
2018-09-04T23:39:56.228Z,99.90
2018-09-04T23:42:01.247Z,99.90
2018-09-04T23:44:06.340Z,99.90
2018-09-04T23:46:11.312Z,99.90
2018-09-04T23:48:16.195Z,99.90
2018-09-04T23:50:21.121Z,99.90
2018-09-04T23:52:26.111Z,99.90
2018-09-04T23:54:31.176Z,99.90
2018-09-04T23:56:36.254Z,99.90
2018-09-04T23:58:41.316Z,99.90
